Time;durP1;ratioP1;P1;durP2;ratioP2;P2;SDS_P1;SDS_P2;PMS_P1;PMS_P2;Temp;Humidity;BMP_temperature;BMP_pressure;BME280_temperature;BME280_humidity;BME280_pressure;Samples;Min_cycle;Max_cycle;Signal;HPM_P1;HPM_P2
2023/08/12 00:01:39;;;;;;;10.57;6.13;;;17.90;99.90;;;;;;5041963;28;20301;-56
2023/08/12 00:04:05;;;;;;;6.17;5.10;;;17.90;99.90;;;;;;5040365;28;20181;-58
2023/08/12 00:06:31;;;;;;;8.90;5.00;;;17.90;99.90;;;;;;5038269;28;20259;-56
2023/08/12 00:08:56;;;;;;;7.00;5.57;;;17.80;99.90;;;;;;5030146;28;20655;-57
2023/08/12 00:11:22;;;;;;;8.10;6.10;;;17.80;99.90;;;;;;5039061;28;20178;-57
2023/08/12 00:13:47;;;;;;;6.80;5.40;;;17.80;99.90;;;;;;5037881;28;20750;-56
2023/08/12 00:16:13;;;;;;;11.13;6.20;;;17.80;99.90;;;;;;5040470;28;20203;-57
2023/08/12 00:18:38;;;;;;;9.17;5.67;;;17.70;99.90;;;;;;5035718;28;20656;-58
2023/08/12 00:21:10;;;;;;;9.90;6.30;;;17.70;99.90;;;;;;5044491;28;20197;-58
2023/08/12 00:23:40;;;;;;;12.33;6.50;;;17.70;99.90;;;;;;5041236;28;20190;-56
2023/08/12 00:26:07;;;;;;;5.80;5.20;;;17.70;99.90;;;;;;5039585;28;20472;-57
2023/08/12 00:28:33;;;;;;;6.73;6.03;;;17.60;99.90;;;;;;5042209;28;20452;-56
2023/08/12 00:30:59;;;;;;;12.17;5.73;;;17.60;99.90;;;;;;5043143;28;20471;-57
2023/08/12 00:33:24;;;;;;;9.40;5.97;;;17.60;99.90;;;;;;5045545;28;22626;-57
2023/08/12 00:35:50;;;;;;;8.13;5.13;;;17.60;99.90;;;;;;5038737;28;20203;-56
2023/08/12 00:38:16;;;;;;;6.80;6.10;;;17.50;99.90;;;;;;5041130;28;20648;-56
2023/08/12 00:40:41;;;;;;;10.97;5.90;;;17.50;99.90;;;;;;5042410;28;20187;-56
2023/08/12 00:43:09;;;;;;;7.40;6.00;;;17.50;99.90;;;;;;5042646;28;20183;-57
2023/08/12 00:45:35;;;;;;;6.10;5.50;;;17.40;99.90;;;;;;5036365;28;20740;-57
2023/08/12 00:48:01;;;;;;;13.10;6.10;;;17.40;99.90;;;;;;5043526;28;20524;-58
2023/08/12 00:50:28;;;;;;;11.27;5.60;;;17.40;99.90;;;;;;5042571;28;20183;-56
2023/08/12 00:52:53;;;;;;;7.47;5.67;;;17.40;99.90;;;;;;5047189;28;20421;-56
2023/08/12 00:55:20;;;;;;;6.77;5.73;;;17.30;99.90;;;;;;5042057;28;21005;-56
2023/08/12 00:57:46;;;;;;;6.87;6.17;;;17.30;99.90;;;;;;5046019;28;20190;-56
2023/08/12 01:00:12;;;;;;;9.23;5.70;;;17.30;99.90;;;;;;5042766;28;20437;-55
2023/08/12 01:02:38;;;;;;;7.30;5.70;;;17.30;99.90;;;;;;5044684;28;20301;-57
2023/08/12 01:05:05;;;;;;;6.00;5.40;;;17.30;99.90;;;;;;5046210;28;21037;-57
2023/08/12 01:07:31;;;;;;;9.00;6.07;;;17.30;99.90;;;;;;5045219;28;20203;-56
2023/08/12 01:09:56;;;;;;;6.63;5.63;;;17.30;99.90;;;;;;5036417;28;20448;-57
2023/08/12 01:12:31;;;;;;;7.07;6.37;;;17.20;99.90;;;;;;5043583;28;20192;-56
2023/08/12 01:15:09;;;;;;;9.23;5.90;;;17.20;99.90;;;;;;5042737;28;20219;-57
2023/08/12 01:17:40;;;;;;;7.50;6.50;;;17.20;99.90;;;;;;5043708;28;20892;-56
2023/08/12 01:20:13;;;;;;;6.50;5.70;;;17.20;99.90;;;;;;5046344;28;20444;-57
2023/08/12 01:22:41;;;;;;;7.70;6.00;;;17.20;99.90;;;;;;5042997;28;20433;-56
2023/08/12 01:25:07;;;;;;;9.70;5.90;;;17.30;99.90;;;;;;5040144;28;20481;-56
2023/08/12 01:27:35;;;;;;;6.70;5.87;;;17.30;99.90;;;;;;5043607;28;20556;-55
2023/08/12 01:30:01;;;;;;;6.57;5.40;;;17.30;99.90;;;;;;5042690;28;20426;-56
2023/08/12 01:32:54;;;;;;;10.87;5.80;;;17.30;99.90;;;;;;5044902;28;20447;-57
2023/08/12 01:35:35;;;;;;;6.03;5.43;;;17.30;99.90;;;;;;5041102;28;20456;-58
2023/08/12 01:38:03;;;;;;;9.27;6.17;;;17.30;99.90;;;;;;5042923;28;20425;-56
2023/08/12 01:40:31;;;;;;;5.93;5.37;;;17.20;99.90;;;;;;5047241;28;20464;-58
2023/08/12 01:42:56;;;;;;;6.83;5.90;;;17.30;99.90;;;;;;5048898;28;20425;-56
2023/08/12 01:45:23;;;;;;;7.53;5.80;;;17.30;99.90;;;;;;5037868;28;20488;-56
2023/08/12 01:47:50;;;;;;;9.27;6.20;;;17.30;99.90;;;;;;5038172;28;20313;-58
2023/08/12 01:50:16;;;;;;;6.80;6.03;;;17.30;99.90;;;;;;5044082;28;20464;-58
2023/08/12 01:52:42;;;;;;;7.53;6.30;;;17.30;99.90;;;;;;5048037;28;20795;-57
2023/08/12 01:55:08;;;;;;;7.23;6.00;;;17.30;99.90;;;;;;5047192;28;20221;-58
2023/08/12 01:57:34;;;;;;;10.50;6.03;;;17.30;99.90;;;;;;5041989;28;20175;-56
2023/08/12 02:00:01;;;;;;;8.47;6.37;;;17.30;99.90;;;;;;5040278;28;20438;-56
2023/08/12 02:02:27;;;;;;;10.10;6.10;;;17.30;99.90;;;;;;5043512;28;20186;-56
2023/08/12 02:04:53;;;;;;;8.40;6.93;;;17.40;99.90;;;;;;5046513;28;20449;-57
2023/08/12 02:07:18;;;;;;;6.87;5.60;;;17.40;99.90;;;;;;5043040;28;20218;-56
2023/08/12 02:09:44;;;;;;;7.57;5.80;;;17.40;99.90;;;;;;5039382;28;20194;-55
2023/08/12 02:12:09;;;;;;;6.67;5.93;;;17.30;99.90;;;;;;5042754;28;20179;-57
2023/08/12 02:14:36;;;;;;;7.70;5.33;;;17.30;99.90;;;;;;5038794;28;20195;-56
2023/08/12 02:17:05;;;;;;;7.80;6.37;;;17.30;99.90;;;;;;5044072;28;20582;-56
2023/08/12 02:19:32;;;;;;;8.37;6.50;;;17.30;99.90;;;;;;5036866;28;20552;-57
2023/08/12 02:21:57;;;;;;;9.03;6.20;;;17.30;99.90;;;;;;5041114;28;20488;-57
2023/08/12 02:24:23;;;;;;;11.43;6.63;;;17.30;99.90;;;;;;5047975;28;20944;-56
2023/08/12 02:26:48;;;;;;;10.53;6.33;;;17.30;99.90;;;;;;5045434;28;20203;-56
2023/08/12 02:29:14;;;;;;;7.50;6.40;;;17.30;99.90;;;;;;5035913;28;20183;-56
2023/08/12 02:31:39;;;;;;;8.00;6.13;;;17.30;99.90;;;;;;5039462;28;20244;-55
2023/08/12 02:34:05;;;;;;;8.57;6.07;;;17.30;99.90;;;;;;5044227;28;20187;-56
2023/08/12 02:36:31;;;;;;;7.30;6.00;;;17.30;99.90;;;;;;5036623;28;20773;-55
2023/08/12 02:38:56;;;;;;;9.23;5.80;;;17.30;99.90;;;;;;5041580;28;20560;-56
2023/08/12 02:41:22;;;;;;;7.10;6.20;;;17.30;99.90;;;;;;5042047;28;20183;-56
2023/08/12 02:43:47;;;;;;;10.97;6.30;;;17.30;99.90;;;;;;5042193;28;20664;-56
2023/08/12 02:46:15;;;;;;;12.87;6.33;;;17.30;99.90;;;;;;5039286;28;20215;-56
2023/08/12 02:48:41;;;;;;;7.00;6.30;;;17.30;99.90;;;;;;5040070;28;20187;-56
2023/08/12 02:51:06;;;;;;;9.73;6.43;;;17.30;99.90;;;;;;5040680;28;20463;-56
2023/08/12 02:53:32;;;;;;;7.83;5.90;;;17.30;99.90;;;;;;5045981;28;20185;-55
2023/08/12 02:55:57;;;;;;;9.40;6.27;;;17.30;99.90;;;;;;5037638;28;20668;-56
2023/08/12 02:58:23;;;;;;;9.10;6.90;;;17.30;99.90;;;;;;5039259;28;20191;-56
2023/08/12 03:00:48;;;;;;;11.67;6.27;;;17.30;99.90;;;;;;5037494;28;20215;-58
2023/08/12 03:03:14;;;;;;;10.47;6.83;;;17.30;99.90;;;;;;5044393;28;20175;-55
2023/08/12 03:05:40;;;;;;;7.40;6.70;;;17.30;99.90;;;;;;5044474;28;20676;-57
2023/08/12 03:08:06;;;;;;;11.97;6.17;;;17.30;99.90;;;;;;5043451;28;20191;-55
2023/08/12 03:10:33;;;;;;;7.40;6.60;;;17.30;99.90;;;;;;5042843;28;20488;-56
2023/08/12 03:12:59;;;;;;;9.60;6.87;;;17.30;99.90;;;;;;5039052;28;20175;-56
2023/08/12 03:15:25;;;;;;;8.77;6.43;;;17.30;99.90;;;;;;5038951;28;20462;-57
2023/08/12 03:17:50;;;;;;;9.57;6.37;;;17.30;99.90;;;;;;5041792;28;20209;-59
2023/08/12 03:20:16;;;;;;;10.07;6.50;;;17.20;99.90;;;;;;5043812;28;20230;-58
2023/08/12 03:22:41;;;;;;;7.47;6.40;;;17.20;99.90;;;;;;5042273;28;20671;-58
2023/08/12 03:25:07;;;;;;;10.27;6.27;;;17.20;99.90;;;;;;5038074;28;20249;-58
2023/08/12 03:27:33;;;;;;;10.80;6.50;;;17.20;99.90;;;;;;5038026;28;20221;-56
2023/08/12 03:29:59;;;;;;;7.60;6.17;;;17.20;99.90;;;;;;5041560;28;20427;-58
2023/08/12 03:32:25;;;;;;;8.50;6.17;;;17.20;99.90;;;;;;5040817;28;20958;-56
2023/08/12 03:34:50;;;;;;;9.73;6.70;;;17.10;99.90;;;;;;5045231;28;20219;-56
2023/08/12 03:37:16;;;;;;;8.10;6.53;;;17.10;99.90;;;;;;5038540;28;20472;-58
2023/08/12 03:39:42;;;;;;;8.30;6.70;;;17.10;99.90;;;;;;5046348;28;20175;-55
2023/08/12 03:42:07;;;;;;;8.10;6.13;;;17.00;99.90;;;;;;5038842;28;20250;-57
2023/08/12 03:44:33;;;;;;;9.73;6.23;;;17.00;99.90;;;;;;5044394;28;20299;-55
2023/08/12 03:46:58;;;;;;;8.00;6.70;;;17.00;99.90;;;;;;5039267;28;20227;-57
2023/08/12 03:49:24;;;;;;;8.33;6.53;;;17.00;99.90;;;;;;5043403;28;20197;-56
2023/08/12 03:51:49;;;;;;;7.80;6.20;;;17.00;99.90;;;;;;5036563;28;20562;-56
2023/08/12 03:54:15;;;;;;;8.77;6.40;;;17.00;99.90;;;;;;5040551;28;20179;-56
2023/08/12 03:56:40;;;;;;;7.60;6.67;;;17.00;99.90;;;;;;5039230;28;20683;-54
2023/08/12 03:59:06;;;;;;;8.40;6.67;;;17.00;99.90;;;;;;5042485;28;20193;-54
2023/08/12 04:01:32;;;;;;;9.17;6.53;;;17.00;99.90;;;;;;5044614;28;20194;-54
2023/08/12 04:03:57;;;;;;;16.20;7.40;;;17.00;99.90;;;;;;5033834;28;20321;-53
2023/08/12 04:06:23;;;;;;;9.17;7.00;;;17.10;99.90;;;;;;5044795;28;20210;-57
2023/08/12 04:08:48;;;;;;;8.17;6.90;;;17.10;99.90;;;;;;5038893;28;20213;-56
2023/08/12 04:11:14;;;;;;;11.10;7.13;;;17.10;99.90;;;;;;5045014;28;20176;-53
2023/08/12 04:13:39;;;;;;;9.03;6.63;;;17.00;99.90;;;;;;5038499;28;20639;-54
2023/08/12 04:16:05;;;;;;;10.57;8.00;;;17.00;99.90;;;;;;5040163;28;20206;-55
2023/08/12 04:18:30;;;;;;;6.73;6.10;;;17.00;99.90;;;;;;5042089;28;20183;-55
2023/08/12 04:20:56;;;;;;;9.00;6.63;;;17.00;99.90;;;;;;5040543;28;20701;-54
2023/08/12 04:23:22;;;;;;;7.20;6.27;;;17.00;99.90;;;;;;5039741;28;20186;-55
2023/08/12 04:25:48;;;;;;;8.10;6.83;;;17.00;99.90;;;;;;5039530;28;20293;-55
2023/08/12 04:28:14;;;;;;;9.87;6.23;;;17.00;99.90;;;;;;5040935;28;20336;-55
2023/08/12 04:30:45;;;;;;;9.40;6.57;;;17.00;99.90;;;;;;5040551;28;20452;-54
2023/08/12 04:33:11;;;;;;;8.47;6.90;;;17.00;99.90;;;;;;5040698;28;20480;-55
2023/08/12 04:35:38;;;;;;;7.80;6.53;;;17.00;99.90;;;;;;5042686;28;20993;-55
2023/08/12 04:38:04;;;;;;;9.97;6.67;;;17.00;99.90;;;;;;5043856;28;20426;-55
2023/08/12 04:40:29;;;;;;;8.23;6.57;;;17.00;99.90;;;;;;5041213;28;20445;-55
2023/08/12 04:42:55;;;;;;;12.23;7.07;;;17.00;99.90;;;;;;5036216;28;20187;-56
2023/08/12 04:45:20;;;;;;;7.00;6.30;;;17.00;99.90;;;;;;5038135;28;20216;-57
2023/08/12 04:47:46;;;;;;;7.30;6.60;;;17.00;99.90;;;;;;5045573;28;20215;-56
2023/08/12 04:50:11;;;;;;;8.37;6.17;;;17.00;99.90;;;;;;5047663;28;20265;-56
2023/08/12 04:52:37;;;;;;;9.17;7.20;;;17.00;99.90;;;;;;5045302;28;20172;-56
2023/08/12 04:55:04;;;;;;;7.47;6.10;;;17.10;99.90;;;;;;5043736;28;20203;-55
2023/08/12 04:57:30;;;;;;;8.30;6.50;;;17.10;99.90;;;;;;5043895;28;20548;-56
2023/08/12 04:59:55;;;;;;;8.07;7.07;;;17.10;99.90;;;;;;5040005;28;20430;-56
2023/08/12 05:02:21;;;;;;;7.13;6.43;;;17.20;99.90;;;;;;5048266;28;20254;-55
2023/08/12 05:04:52;;;;;;;7.43;6.67;;;17.20;99.90;;;;;;5044694;28;20281;-56
2023/08/12 05:07:17;;;;;;;7.40;6.60;;;17.20;99.90;;;;;;5045916;28;20195;-56
2023/08/12 05:09:44;;;;;;;8.43;7.27;;;17.20;99.90;;;;;;5040106;28;20532;-55
2023/08/12 05:12:10;;;;;;;7.57;6.53;;;17.30;99.90;;;;;;5042641;28;20255;-56
2023/08/12 05:14:37;;;;;;;7.17;6.47;;;17.30;99.90;;;;;;5049485;28;20995;-56
2023/08/12 05:17:02;;;;;;;10.97;7.00;;;17.30;99.90;;;;;;5048266;28;20508;-56
2023/08/12 05:19:28;;;;;;;8.20;7.03;;;17.40;99.90;;;;;;5046156;28;20513;-55
2023/08/12 05:21:54;;;;;;;7.60;6.17;;;17.40;99.90;;;;;;5040448;28;20189;-56
2023/08/12 05:24:19;;;;;;;9.83;6.10;;;17.40;99.90;;;;;;5049414;28;20182;-55
2023/08/12 05:26:45;;;;;;;8.47;6.33;;;17.40;99.90;;;;;;5044299;28;20684;-56
2023/08/12 05:29:10;;;;;;;7.90;6.50;;;17.50;99.90;;;;;;5049009;28;20175;-54
2023/08/12 05:31:36;;;;;;;11.03;6.30;;;17.50;99.90;;;;;;5045941;28;20190;-55
2023/08/12 05:34:02;;;;;;;8.27;6.10;;;17.50;99.90;;;;;;5047228;28;20182;-56
2023/08/12 05:36:28;;;;;;;12.43;6.90;;;17.50;99.90;;;;;;5041569;28;20278;-55
2023/08/12 05:38:54;;;;;;;9.23;6.90;;;17.50;99.90;;;;;;5047235;28;20271;-55
2023/08/12 05:41:20;;;;;;;9.97;7.57;;;17.50;99.90;;;;;;5041798;28;20469;-55
2023/08/12 05:43:45;;;;;;;7.60;6.67;;;17.50;99.90;;;;;;5043742;28;20179;-56
2023/08/12 05:46:11;;;;;;;8.20;6.70;;;17.50;99.90;;;;;;5042949;28;20751;-55
2023/08/12 05:48:36;;;;;;;13.10;7.10;;;17.50;99.90;;;;;;5044310;28;20179;-56
2023/08/12 05:51:02;;;;;;;9.80;6.23;;;17.50;99.90;;;;;;5040371;28;20183;-56
2023/08/12 05:53:28;;;;;;;9.30;6.50;;;17.50;99.90;;;;;;5040216;28;20198;-57
2023/08/12 05:55:53;;;;;;;7.30;6.50;;;17.50;99.90;;;;;;5047887;28;20214;-55
2023/08/12 05:58:20;;;;;;;9.07;7.07;;;17.50;99.90;;;;;;5039972;28;20215;-55
2023/08/12 06:00:45;;;;;;;7.17;6.47;;;17.50;99.90;;;;;;5041989;28;20180;-55
2023/08/12 06:03:12;;;;;;;15.27;7.23;;;17.60;99.90;;;;;;5047401;28;20863;-55
2023/08/12 06:05:38;;;;;;;7.00;6.30;;;17.70;99.90;;;;;;5048470;28;20195;-56
2023/08/12 06:08:04;;;;;;;10.30;7.57;;;17.70;99.90;;;;;;5048804;28;20458;-55
2023/08/12 06:10:29;;;;;;;7.10;6.27;;;17.80;99.90;;;;;;5042038;28;20206;-56
2023/08/12 06:12:55;;;;;;;9.93;7.33;;;17.80;99.90;;;;;;5044499;28;20541;-57
2023/08/12 06:15:20;;;;;;;7.17;6.40;;;17.90;99.90;;;;;;5048267;28;20245;-55
2023/08/12 06:17:46;;;;;;;7.23;6.50;;;17.90;99.90;;;;;;5043451;28;20185;-55
2023/08/12 06:20:12;;;;;;;7.90;7.00;;;17.90;99.90;;;;;;5040580;28;20641;-56
2023/08/12 06:22:37;;;;;;;9.10;7.23;;;18.00;99.90;;;;;;5041155;28;20221;-57
2023/08/12 06:25:03;;;;;;;7.73;6.30;;;18.10;99.90;;;;;;5043986;28;20461;-56
2023/08/12 06:27:29;;;;;;;7.50;5.90;;;18.20;99.90;;;;;;5035397;28;20206;-55
2023/08/12 06:29:54;;;;;;;8.00;7.07;;;18.30;99.90;;;;;;5040647;28;20195;-57
2023/08/12 06:32:20;;;;;;;9.20;6.70;;;18.40;99.90;;;;;;5039163;28;20199;-55
2023/08/12 06:34:46;;;;;;;8.00;6.93;;;18.60;99.90;;;;;;5046578;28;20675;-56
2023/08/12 06:37:11;;;;;;;7.43;6.63;;;18.80;99.90;;;;;;5043468;28;20179;-54
2023/08/12 06:39:37;;;;;;;14.63;6.80;;;19.00;99.90;;;;;;5048146;28;20194;-55
2023/08/12 06:42:03;;;;;;;9.50;6.83;;;19.20;99.90;;;;;;5045359;28;20175;-55
2023/08/12 06:44:29;;;;;;;10.37;7.13;;;19.40;99.90;;;;;;5044996;28;20171;-55
2023/08/12 06:46:54;;;;;;;9.13;6.50;;;19.50;99.90;;;;;;5047049;28;21012;-54
2023/08/12 06:49:20;;;;;;;9.43;6.90;;;19.50;99.90;;;;;;5043828;28;20671;-55
2023/08/12 06:51:45;;;;;;;7.77;6.70;;;19.50;99.90;;;;;;5044276;28;20238;-55
2023/08/12 06:54:11;;;;;;;10.63;7.10;;;19.50;99.90;;;;;;5038191;28;20727;-55
2023/08/12 06:56:37;;;;;;;8.30;7.07;;;19.40;99.90;;;;;;5044457;28;20213;-58
2023/08/12 06:59:02;;;;;;;11.13;6.37;;;19.40;99.90;;;;;;5044810;28;20186;-58
2023/08/12 07:01:28;;;;;;;7.13;6.43;;;19.30;99.90;;;;;;5043489;28;20652;-56
2023/08/12 07:03:53;;;;;;;11.00;7.30;;;19.30;99.90;;;;;;5040845;28;20194;-58
2023/08/12 07:06:19;;;;;;;9.23;6.80;;;19.30;99.90;;;;;;5035069;28;20206;-58
2023/08/12 07:08:45;;;;;;;9.93;6.90;;;19.20;99.90;;;;;;5043345;28;20801;-58
2023/08/12 07:11:10;;;;;;;9.07;7.80;;;19.20;99.90;;;;;;5042103;28;20186;-57
2023/08/12 07:13:36;;;;;;;7.73;6.70;;;19.20;99.90;;;;;;5043282;28;20237;-60
2023/08/12 07:16:01;;;;;;;7.70;6.37;;;19.10;99.90;;;;;;5043700;28;20890;-57
2023/08/12 07:18:28;;;;;;;8.20;7.17;;;19.20;99.90;;;;;;5036476;28;20206;-56
2023/08/12 07:20:54;;;;;;;10.13;7.03;;;19.30;99.90;;;;;;5032580;28;20563;-56
2023/08/12 07:23:20;;;;;;;12.03;5.93;;;19.30;99.90;;;;;;5038243;28;20437;-56
2023/08/12 07:25:48;;;;;;;8.43;6.77;;;19.40;99.90;;;;;;5040647;28;20202;-56
2023/08/12 07:28:14;;;;;;;9.20;7.03;;;19.50;99.90;;;;;;5041764;28;20591;-56
2023/08/12 07:30:39;;;;;;;8.30;6.37;;;19.60;99.90;;;;;;5042092;28;20430;-57
2023/08/12 07:33:05;;;;;;;7.80;6.90;;;19.70;99.90;;;;;;5037853;28;20172;-57
2023/08/12 07:35:30;;;;;;;10.60;7.07;;;19.80;99.90;;;;;;5045080;28;20201;-58
2023/08/12 07:37:56;;;;;;;7.23;6.50;;;20.00;99.90;;;;;;5039270;28;20636;-57
2023/08/12 07:40:22;;;;;;;9.83;6.53;;;20.20;99.90;;;;;;5043721;28;20179;-56
2023/08/12 07:42:47;;;;;;;7.63;6.20;;;20.30;99.90;;;;;;5032145;28;20171;-55
2023/08/12 07:45:13;;;;;;;11.40;6.57;;;20.30;99.90;;;;;;5025546;28;21027;-58
2023/08/12 07:47:39;;;;;;;16.83;6.73;;;20.30;99.90;;;;;;5035054;28;20192;-56
2023/08/12 07:50:05;;;;;;;11.30;6.73;;;20.30;99.90;;;;;;5032779;28;20254;-57
2023/08/12 07:52:31;;;;;;;7.67;6.67;;;20.30;99.90;;;;;;5032806;28;20183;-56
2023/08/12 07:54:56;;;;;;;8.40;6.50;;;20.20;99.90;;;;;;5030881;28;21085;-56
2023/08/12 07:57:24;;;;;;;9.10;6.20;;;20.20;99.90;;;;;;5031956;28;20272;-57
2023/08/12 07:59:50;;;;;;;10.60;6.63;;;20.20;99.90;;;;;;5030660;28;20213;-57
2023/08/12 08:02:16;;;;;;;8.80;6.70;;;20.20;99.90;;;;;;5030792;28;20605;-57
2023/08/12 08:04:42;;;;;;;7.40;6.60;;;20.20;99.90;;;;;;5038574;28;20558;-57
2023/08/12 08:07:07;;;;;;;9.80;6.13;;;20.20;99.90;;;;;;5029266;28;20211;-56
2023/08/12 08:09:33;;;;;;;9.27;6.90;;;20.20;99.90;;;;;;5038372;28;20183;-57
2023/08/12 08:12:00;;;;;;;9.30;6.90;;;20.20;99.90;;;;;;5035578;28;20241;-59
2023/08/12 08:14:27;;;;;;;9.53;6.50;;;20.20;99.90;;;;;;5037317;28;20180;-57
2023/08/12 08:16:53;;;;;;;11.60;7.00;;;20.20;99.90;;;;;;5037432;28;20440;-56
2023/08/12 08:19:18;;;;;;;7.63;6.80;;;20.20;99.90;;;;;;5036595;28;20433;-55
2023/08/12 08:21:44;;;;;;;9.57;6.87;;;20.30;99.90;;;;;;5037006;28;21008;-55
2023/08/12 08:24:12;;;;;;;9.53;7.13;;;20.40;99.90;;;;;;5028464;28;20209;-58
2023/08/12 08:26:41;;;;;;;8.80;6.70;;;20.40;99.90;;;;;;5027066;28;20470;-56
2023/08/12 08:29:06;;;;;;;11.83;7.00;;;20.50;99.90;;;;;;5030297;28;20438;-56
2023/08/12 08:31:32;;;;;;;8.13;7.07;;;20.50;99.90;;;;;;5035320;28;20826;-55
2023/08/12 08:33:58;;;;;;;8.33;6.90;;;20.60;99.90;;;;;;5027792;28;20202;-55
2023/08/12 08:36:24;;;;;;;8.37;6.80;;;20.70;99.90;;;;;;5030946;28;20202;-56
2023/08/12 08:38:50;;;;;;;7.30;6.30;;;20.80;99.90;;;;;;5028758;28;20242;-57
2023/08/12 08:41:19;;;;;;;7.17;5.80;;;20.90;99.90;;;;;;5031296;28;20494;-57
2023/08/12 08:43:48;;;;;;;6.37;5.57;;;21.00;99.90;;;;;;5031915;28;20720;-56
2023/08/12 08:46:15;;;;;;;10.30;5.90;;;21.10;99.90;;;;;;5032488;28;20483;-57
2023/08/12 08:48:42;;;;;;;10.87;6.17;;;21.30;99.90;;;;;;5033410;28;20537;-58
2023/08/12 08:51:10;;;;;;;7.70;6.10;;;21.40;99.90;;;;;;5031568;28;20490;-59
2023/08/12 08:53:39;;;;;;;11.50;5.80;;;21.60;99.90;;;;;;5029191;28;20434;-58
2023/08/12 08:56:07;;;;;;;7.00;5.70;;;21.70;99.90;;;;;;5031818;28;20978;-57
2023/08/12 08:58:33;;;;;;;12.47;5.57;;;21.80;99.90;;;;;;5028638;28;20446;-57
2023/08/12 09:00:59;;;;;;;7.73;5.63;;;21.80;99.90;;;;;;5027192;28;20449;-57
2023/08/12 09:03:26;;;;;;;7.57;5.30;;;21.90;99.90;;;;;;5032674;28;20187;-58
2023/08/12 09:05:55;;;;;;;7.07;5.73;;;21.90;99.90;;;;;;5030818;28;20836;-58
2023/08/12 09:08:21;;;;;;;7.13;6.40;;;21.90;99.90;;;;;;5030186;28;20846;-57
2023/08/12 09:10:48;;;;;;;10.50;6.00;;;22.00;99.90;;;;;;5027200;28;20517;-58
2023/08/12 09:13:14;;;;;;;7.30;5.63;;;22.10;99.90;;;;;;5027924;28;20437;-57
2023/08/12 09:15:40;;;;;;;8.87;5.33;;;22.30;99.90;;;;;;5030289;28;21068;-58
2023/08/12 09:18:06;;;;;;;6.63;5.60;;;22.40;99.90;;;;;;5034656;28;20652;-58
2023/08/12 09:20:36;;;;;;;9.00;6.20;;;22.50;99.90;;;;;;5032740;28;20187;-58
2023/08/12 09:23:02;;;;;;;8.33;5.70;;;22.70;99.90;;;;;;5029887;28;21061;-57
2023/08/12 09:25:29;;;;;;;6.00;5.40;;;22.90;99.90;;;;;;5032620;28;20563;-58
2023/08/12 09:27:58;;;;;;;7.20;6.00;;;23.30;99.90;;;;;;5029850;28;20458;-58
2023/08/12 09:30:24;;;;;;;6.90;5.80;;;23.50;99.90;;;;;;5035093;28;20445;-57
2023/08/12 09:33:03;;;;;;;6.50;5.43;;;23.60;99.90;;;;;;5031756;28;20422;-57
2023/08/12 09:35:36;;;;;;;6.00;5.40;;;23.60;99.90;;;;;;5039425;28;20187;-57
2023/08/12 09:38:07;;;;;;;7.07;5.90;;;23.60;99.90;;;;;;5032837;28;20449;-56
2023/08/12 09:40:34;;;;;;;6.57;5.60;;;23.70;99.90;;;;;;5036839;28;20450;-56
2023/08/12 09:43:00;;;;;;;8.90;5.63;;;23.70;99.90;;;;;;5035979;28;20554;-57
2023/08/12 09:45:26;;;;;;;8.07;5.70;;;23.70;99.90;;;;;;5037785;28;20453;-58
2023/08/12 09:47:55;;;;;;;9.17;5.83;;;23.60;99.90;;;;;;5034482;28;20458;-59
2023/08/12 09:50:23;;;;;;;7.40;5.70;;;23.60;99.90;;;;;;5030902;28;20919;-57
2023/08/12 09:52:48;;;;;;;9.60;5.93;;;23.60;99.90;;;;;;5036664;28;20430;-55
2023/08/12 09:55:17;;;;;;;7.40;5.10;;;23.60;99.90;;;;;;5039491;28;20457;-57
2023/08/12 09:57:44;;;;;;;5.70;5.10;;;23.70;99.90;;;;;;5039011;28;20188;-56
2023/08/12 10:00:16;;;;;;;9.73;5.50;;;23.70;99.90;;;;;;5042461;28;20540;-56
2023/08/12 10:02:45;;;;;;;7.03;5.60;;;23.70;99.90;;;;;;5038130;28;20433;-56
2023/08/12 10:05:27;;;;;;;7.00;5.97;;;23.80;99.90;;;;;;5040114;28;21409;-57
2023/08/12 10:07:53;;;;;;;7.20;6.10;;;23.90;99.90;;;;;;5038484;28;20462;-56
2023/08/12 10:10:22;;;;;;;6.23;5.63;;;24.00;98.90;;;;;;5034337;28;20468;-55
2023/08/12 10:12:48;;;;;;;6.13;5.53;;;24.20;99.10;;;;;;5039882;28;20472;-57
2023/08/12 10:15:14;;;;;;;7.80;5.80;;;24.50;97.40;;;;;;5045053;28;20472;-58
2023/08/12 10:17:43;;;;;;;8.07;5.30;;;24.80;93.10;;;;;;5045197;28;20465;-58
2023/08/12 10:20:13;;;;;;;8.77;5.67;;;25.10;91.00;;;;;;5045149;28;20221;-56
2023/08/12 10:22:40;;;;;;;7.07;5.63;;;25.30;88.50;;;;;;5044992;28;21010;-57
2023/08/12 10:25:08;;;;;;;7.57;5.50;;;25.30;87.10;;;;;;5043613;28;20803;-56
2023/08/12 10:27:34;;;;;;;5.90;5.00;;;25.30;78.00;;;;;;5041397;28;21187;-58
2023/08/12 10:30:07;;;;;;;8.37;5.00;;;25.20;72.50;;;;;;5041416;28;20436;-57
2023/08/12 10:32:33;;;;;;;6.03;4.47;;;25.10;73.00;;;;;;5044113;28;20272;-57
2023/08/12 10:34:59;;;;;;;6.23;5.50;;;25.00;73.80;;;;;;5035685;28;20453;-56
2023/08/12 10:37:26;;;;;;;8.23;5.30;;;24.90;75.30;;;;;;5035075;28;20528;-56
2023/08/12 10:39:53;;;;;;;9.17;5.80;;;24.80;78.10;;;;;;5038112;28;20467;-55
2023/08/12 10:42:45;;;;;;;5.83;5.30;;;24.70;79.20;;;;;;5041047;28;20973;-57
2023/08/12 10:45:12;;;;;;;12.30;6.30;;;24.50;80.00;;;;;;5037386;28;20465;-57
2023/08/12 10:47:44;;;;;;;7.57;5.53;;;24.30;82.10;;;;;;5040267;28;20454;-58
2023/08/12 10:50:20;;;;;;;7.27;5.50;;;24.20;83.40;;;;;;5039449;28;20441;-57
2023/08/12 10:52:47;;;;;;;6.50;5.63;;;24.10;86.20;;;;;;5046248;28;20977;-58
2023/08/12 10:55:21;;;;;;;10.37;6.70;;;24.00;88.40;;;;;;5041172;28;20486;-55
2023/08/12 10:57:48;;;;;;;8.30;6.20;;;23.90;90.30;;;;;;5039016;28;20437;-56
2023/08/12 11:00:15;;;;;;;6.50;5.90;;;23.80;90.40;;;;;;5039392;28;20433;-56
2023/08/12 11:02:45;;;;;;;9.00;6.30;;;23.80;90.40;;;;;;5045301;28;20432;-57
2023/08/12 11:05:12;;;;;;;7.77;5.97;;;23.80;90.10;;;;;;5040127;28;21094;-56
2023/08/12 11:07:40;;;;;;;8.10;5.53;;;23.80;90.90;;;;;;5042219;28;21025;-57
2023/08/12 11:10:11;;;;;;;7.40;5.07;;;23.90;90.00;;;;;;5039836;28;20421;-57
2023/08/12 11:12:38;;;;;;;8.90;5.83;;;23.90;85.10;;;;;;5041883;28;20437;-57
2023/08/12 11:15:04;;;;;;;6.93;5.47;;;24.10;85.10;;;;;;5041598;28;20457;-57
2023/08/12 11:17:35;;;;;;;6.80;5.50;;;24.40;82.70;;;;;;5042790;28;20436;-57
2023/08/12 11:20:04;;;;;;;5.80;4.50;;;24.70;80.60;;;;;;5043755;28;20529;-58
2023/08/12 11:22:31;;;;;;;7.50;5.30;;;24.90;77.50;;;;;;5041811;28;20487;-56
2023/08/12 11:24:56;;;;;;;6.87;4.63;;;25.00;72.40;;;;;;5034287;28;20456;-57
2023/08/12 11:27:22;;;;;;;4.90;4.40;;;25.00;67.30;;;;;;5043933;28;20458;-56
2023/08/12 11:29:51;;;;;;;6.30;4.60;;;24.90;66.40;;;;;;5037264;28;20183;-56
2023/08/12 11:32:17;;;;;;;7.67;4.30;;;24.80;65.50;;;;;;5044528;28;20174;-56
2023/08/12 11:34:43;;;;;;;6.13;4.67;;;24.80;64.90;;;;;;5039044;28;20525;-57
2023/08/12 11:37:09;;;;;;;8.77;4.80;;;24.70;65.10;;;;;;5043915;28;20529;-58
2023/08/12 11:39:34;;;;;;;8.80;4.20;;;24.70;65.80;;;;;;5039472;28;20183;-55
2023/08/12 11:42:00;;;;;;;6.13;4.17;;;24.70;66.50;;;;;;5046541;28;20185;-56
2023/08/12 11:44:26;;;;;;;6.30;4.20;;;24.80;66.70;;;;;;5032152;28;20177;-58
2023/08/12 11:46:51;;;;;;;6.60;3.97;;;24.90;66.00;;;;;;5040297;28;20198;-57
2023/08/12 11:49:18;;;;;;;12.30;4.40;;;24.90;65.70;;;;;;5045650;28;20178;-58
2023/08/12 11:51:47;;;;;;;6.63;4.30;;;25.00;65.40;;;;;;5045489;28;20224;-58
2023/08/12 11:54:13;;;;;;;6.17;4.33;;;25.20;64.50;;;;;;5023338;28;21017;-58
2023/08/12 11:56:39;;;;;;;5.60;4.03;;;25.40;64.30;;;;;;5027416;28;20453;-58
2023/08/12 11:59:05;;;;;;;4.90;3.17;;;25.70;64.50;;;;;;5036189;28;20183;-57
2023/08/12 12:01:31;;;;;;;5.13;3.53;;;25.90;62.50;;;;;;5036670;28;20182;-57
2023/08/12 12:04:00;;;;;;;5.20;4.00;;;26.00;61.40;;;;;;5031531;28;20183;-55
2023/08/12 12:06:36;;;;;;;5.70;3.63;;;26.10;62.60;;;;;;5030821;28;20473;-56
2023/08/12 12:09:06;;;;;;;6.37;3.20;;;26.10;62.20;;;;;;5031484;28;20539;-57
2023/08/12 12:11:32;;;;;;;7.13;3.80;;;26.00;62.10;;;;;;5032122;28;20491;-56
2023/08/12 12:14:03;;;;;;;3.80;2.87;;;26.20;61.40;;;;;;5040671;28;20468;-55
2023/08/12 12:16:43;;;;;;;3.97;3.10;;;26.20;60.60;;;;;;5035330;28;20456;-56
2023/08/12 12:19:16;;;;;;;5.20;3.20;;;26.00;60.60;;;;;;5037974;28;20422;-56
2023/08/12 12:21:42;;;;;;;6.60;3.03;;;25.90;61.10;;;;;;5042165;28;20428;-55
2023/08/12 12:24:09;;;;;;;4.50;3.40;;;25.60;60.20;;;;;;5035648;28;20433;-56
2023/08/12 12:26:35;;;;;;;6.73;3.40;;;25.50;60.40;;;;;;5036730;28;20615;-56
2023/08/12 12:29:05;;;;;;;5.67;3.80;;;25.40;61.20;;;;;;5036832;28;20438;-56
2023/08/12 12:31:35;;;;;;;10.30;3.40;;;25.50;61.40;;;;;;5041548;28;20510;-56
2023/08/12 12:34:05;;;;;;;4.63;3.27;;;25.60;60.60;;;;;;5042035;28;20429;-57
2023/08/12 12:36:33;;;;;;;6.90;3.70;;;25.60;60.80;;;;;;5038213;28;21016;-55
2023/08/12 12:38:59;;;;;;;4.17;3.77;;;25.90;61.10;;;;;;5039811;28;20456;-55
2023/08/12 12:41:25;;;;;;;4.03;3.63;;;26.20;60.70;;;;;;5036057;28;20945;-56
2023/08/12 12:43:50;;;;;;;4.43;3.20;;;26.60;59.90;;;;;;5036718;28;20175;-56